createdAt,value
2023-04-27T00:00:41.589Z,515.00
2023-04-27T00:01:41.638Z,514.00
2023-04-27T00:02:41.834Z,516.00
2023-04-27T00:03:42.084Z,520.00
2023-04-27T00:04:42.138Z,516.00
2023-04-27T00:05:41.998Z,518.00
2023-04-27T00:06:41.915Z,519.00
2023-04-27T00:07:41.944Z,518.00
2023-04-27T00:08:42.006Z,515.00
2023-04-27T00:09:42.493Z,525.00
2023-04-27T00:10:42.121Z,517.00
2023-04-27T00:11:42.165Z,522.00
2023-04-27T00:12:42.204Z,523.00
2023-04-27T00:13:42.272Z,519.00
2023-04-27T00:14:42.514Z,523.00
2023-04-27T00:15:42.318Z,520.00
2023-04-27T00:16:42.393Z,513.00
2023-04-27T00:17:42.521Z,515.00
2023-04-27T00:18:42.484Z,517.00
2023-04-27T00:19:42.538Z,515.00
2023-04-27T00:20:42.604Z,519.00
2023-04-27T00:21:42.636Z,513.00
2023-04-27T00:22:42.688Z,521.00
2023-04-27T00:23:42.773Z,520.00
2023-04-27T00:24:42.848Z,516.00
2023-04-27T00:25:42.872Z,520.00
2023-04-27T00:26:43.003Z,517.00
2023-04-27T00:27:42.994Z,517.00
2023-04-27T00:28:43.022Z,521.00
2023-04-27T00:29:43.524Z,518.00
2023-04-27T00:30:43.135Z,522.00
2023-04-27T00:31:43.218Z,514.00
2023-04-27T00:32:43.306Z,520.00
2023-04-27T00:33:43.295Z,515.00
2023-04-27T00:34:43.358Z,511.00
2023-04-27T00:35:43.492Z,512.00
2023-04-27T00:36:43.445Z,509.00
2023-04-27T00:37:43.475Z,511.00
2023-04-27T00:38:43.533Z,510.00
2023-04-27T00:39:43.583Z,505.00
2023-04-27T00:40:43.990Z,504.00
2023-04-27T00:41:43.672Z,502.00
2023-04-27T00:42:43.709Z,504.00
2023-04-27T00:43:43.751Z,504.00
2023-04-27T00:44:43.800Z,513.00
2023-04-27T00:45:43.878Z,509.00
2023-04-27T00:46:43.874Z,503.00
2023-04-27T00:47:43.939Z,506.00
2023-04-27T00:48:43.970Z,508.00
2023-04-27T00:49:43.987Z,513.00
2023-04-27T00:50:44.046Z,505.00
2023-04-27T00:51:44.092Z,507.00
2023-04-27T00:52:44.127Z,507.00
2023-04-27T00:53:44.141Z,506.00
2023-04-27T00:54:44.213Z,505.00
2023-04-27T00:55:44.260Z,509.00
2023-04-27T00:56:44.280Z,503.00
2023-04-27T00:57:44.353Z,506.00
2023-04-27T00:58:44.407Z,509.00
2023-04-27T00:59:44.529Z,504.00
2023-04-27T01:00:44.497Z,513.00
2023-04-27T01:01:44.702Z,512.00
2023-04-27T01:02:44.705Z,508.00
2023-04-27T01:03:44.760Z,508.00
2023-04-27T01:04:44.662Z,503.00
2023-04-27T01:05:44.699Z,510.00
2023-04-27T01:06:44.743Z,504.00
2023-04-27T01:07:44.748Z,507.00
2023-04-27T01:08:44.792Z,508.00
2023-04-27T01:09:44.838Z,502.00
2023-04-27T01:10:44.915Z,506.00
2023-04-27T01:11:44.936Z,502.00
2023-04-27T01:12:44.996Z,506.00
2023-04-27T01:13:45.032Z,511.00
2023-04-27T01:14:45.056Z,505.00
2023-04-27T01:15:45.104Z,510.00
2023-04-27T01:16:45.214Z,506.00
2023-04-27T01:17:45.238Z,500.00
2023-04-27T01:18:45.221Z,507.00
2023-04-27T01:19:45.283Z,512.00
2023-04-27T01:20:45.304Z,507.00
2023-04-27T01:21:45.349Z,505.00
2023-04-27T01:22:45.398Z,516.00
2023-04-27T01:23:45.461Z,513.00
2023-04-27T01:24:45.469Z,512.00
2023-04-27T01:25:45.512Z,515.00
2023-04-27T01:26:45.524Z,512.00
2023-04-27T01:27:45.575Z,509.00
2023-04-27T01:28:45.606Z,513.00
2023-04-27T01:29:45.633Z,508.00
2023-04-27T01:30:45.679Z,505.00
2023-04-27T01:31:45.816Z,504.00
2023-04-27T01:32:45.763Z,512.00
2023-04-27T01:33:45.808Z,509.00
2023-04-27T01:34:45.843Z,514.00
2023-04-27T01:35:45.838Z,509.00
2023-04-27T01:36:45.885Z,508.00
2023-04-27T01:37:45.943Z,508.00
2023-04-27T01:38:45.969Z,516.00
2023-04-27T01:39:45.953Z,507.00
2023-04-27T01:40:46.028Z,506.00
2023-04-27T01:41:46.079Z,508.00
2023-04-27T01:42:46.110Z,516.00
2023-04-27T01:43:46.164Z,508.00
2023-04-27T01:44:46.194Z,507.00
2023-04-27T01:45:46.232Z,506.00
2023-04-27T01:46:46.446Z,507.00
2023-04-27T01:47:46.355Z,509.00
2023-04-27T01:48:46.379Z,506.00
2023-04-27T01:49:46.387Z,514.00
2023-04-27T01:50:46.416Z,507.00
2023-04-27T01:51:46.455Z,509.00
2023-04-27T01:52:46.494Z,509.00
2023-04-27T01:53:46.523Z,504.00
2023-04-27T01:54:46.578Z,507.00
2023-04-27T01:55:46.659Z,510.00
2023-04-27T01:56:46.691Z,516.00
2023-04-27T01:57:46.705Z,509.00
2023-04-27T01:58:46.770Z,515.00
2023-04-27T01:59:46.786Z,510.00
2023-04-27T02:00:46.816Z,507.00
2023-04-27T02:01:46.880Z,511.00
2023-04-27T02:02:46.996Z,506.00
2023-04-27T02:03:47.314Z,509.00
2023-04-27T02:04:47.461Z,505.00
2023-04-27T02:05:47.190Z,505.00
2023-04-27T02:06:47.029Z,507.00
2023-04-27T02:07:47.092Z,512.00
2023-04-27T02:08:47.173Z,509.00
2023-04-27T02:09:47.206Z,508.00
2023-04-27T02:10:47.226Z,509.00
2023-04-27T02:11:47.279Z,510.00
2023-04-27T02:12:47.304Z,508.00
2023-04-27T02:13:47.328Z,507.00
2023-04-27T02:14:47.403Z,506.00
2023-04-27T02:15:47.571Z,506.00
2023-04-27T02:16:47.456Z,501.00
2023-04-27T02:17:47.577Z,511.00
2023-04-27T02:18:47.497Z,503.00
2023-04-27T02:19:47.521Z,511.00
2023-04-27T02:20:47.548Z,510.00
2023-04-27T02:21:47.596Z,509.00
2023-04-27T02:22:47.618Z,508.00
2023-04-27T02:23:47.664Z,507.00
2023-04-27T02:24:47.705Z,511.00
2023-04-27T02:25:47.750Z,512.00
2023-04-27T02:26:47.792Z,504.00
2023-04-27T02:27:47.799Z,504.00
2023-04-27T02:28:47.828Z,510.00
2023-04-27T02:29:47.855Z,506.00
2023-04-27T02:30:47.852Z,511.00
2023-04-27T02:31:47.917Z,515.00
2023-04-27T02:32:47.953Z,510.00
2023-04-27T02:33:47.942Z,506.00
2023-04-27T02:34:47.942Z,510.00
2023-04-27T02:35:47.968Z,511.00
2023-04-27T02:36:47.984Z,505.00
2023-04-27T02:37:48.014Z,508.00
2023-04-27T02:38:48.028Z,503.00
2023-04-27T02:39:48.072Z,506.00
2023-04-27T02:40:48.082Z,517.00
2023-04-27T02:41:48.109Z,510.00
2023-04-27T02:42:48.140Z,506.00
2023-04-27T02:43:48.146Z,507.00
2023-04-27T02:44:48.139Z,507.00
2023-04-27T02:45:48.183Z,511.00
2023-04-27T02:46:48.280Z,508.00
2023-04-27T02:47:48.246Z,508.00
2023-04-27T02:48:48.237Z,511.00
2023-04-27T02:49:48.247Z,515.00
2023-04-27T02:50:48.284Z,510.00
2023-04-27T02:51:48.305Z,514.00
2023-04-27T02:52:48.321Z,510.00
2023-04-27T02:53:48.321Z,513.00
2023-04-27T02:54:48.393Z,511.00
2023-04-27T02:55:48.437Z,512.00
2023-04-27T02:56:48.385Z,510.00
2023-04-27T02:57:48.402Z,508.00
2023-04-27T02:58:48.442Z,506.00
2023-04-27T02:59:48.483Z,510.00
2023-04-27T03:00:49.088Z,519.00
2023-04-27T03:01:48.492Z,515.00
2023-04-27T03:02:48.631Z,513.00
2023-04-27T03:03:48.714Z,512.00
2023-04-27T03:04:48.676Z,515.00
2023-04-27T03:05:48.623Z,515.00
2023-04-27T03:06:48.671Z,519.00
2023-04-27T03:07:48.678Z,518.00
2023-04-27T03:08:48.649Z,518.00
2023-04-27T03:09:49.015Z,513.00
2023-04-27T03:10:48.704Z,513.00
2023-04-27T03:11:48.709Z,519.00
2023-04-27T03:12:48.753Z,520.00
2023-04-27T03:13:48.794Z,525.00
2023-04-27T03:14:48.773Z,519.00
2023-04-27T03:15:48.809Z,518.00
2023-04-27T03:16:48.927Z,514.00
2023-04-27T03:17:48.863Z,511.00
2023-04-27T03:18:48.818Z,512.00
2023-04-27T03:19:48.873Z,516.00
2023-04-27T03:20:48.899Z,516.00
2023-04-27T03:21:48.906Z,524.00
2023-04-27T03:22:48.949Z,522.00
2023-04-27T03:23:48.935Z,523.00
2023-04-27T03:24:48.991Z,518.00
2023-04-27T03:25:48.948Z,514.00
2023-04-27T03:26:49.019Z,520.00
2023-04-27T03:27:49.035Z,513.00
2023-04-27T03:28:49.023Z,516.00
2023-04-27T03:29:49.073Z,516.00
2023-04-27T03:30:49.065Z,524.00
2023-04-27T03:31:49.093Z,517.00
2023-04-27T03:32:49.083Z,519.00
2023-04-27T03:33:49.061Z,523.00
2023-04-27T03:34:49.062Z,516.00
2023-04-27T03:35:49.070Z,519.00
2023-04-27T03:36:49.128Z,516.00
2023-04-27T03:37:49.100Z,521.00
2023-04-27T03:38:49.143Z,510.00
2023-04-27T03:39:49.201Z,525.00
2023-04-27T03:40:49.180Z,518.00
2023-04-27T03:41:49.194Z,512.00
2023-04-27T03:42:49.246Z,521.00
2023-04-27T03:43:49.239Z,524.00
2023-04-27T03:44:49.249Z,518.00
2023-04-27T03:45:49.301Z,519.00
2023-04-27T03:46:49.289Z,526.00
2023-04-27T03:47:49.371Z,524.00
2023-04-27T03:48:49.309Z,525.00
2023-04-27T03:49:49.329Z,529.00
2023-04-27T03:50:49.383Z,522.00
2023-04-27T03:51:49.386Z,530.00
2023-04-27T03:52:49.394Z,526.00
2023-04-27T03:53:49.436Z,528.00
2023-04-27T03:54:49.557Z,534.00
2023-04-27T03:55:49.481Z,528.00
2023-04-27T03:56:49.466Z,534.00
2023-04-27T03:57:49.497Z,529.00
2023-04-27T03:58:49.555Z,526.00
2023-04-27T03:59:49.507Z,533.00
2023-04-27T04:00:49.571Z,530.00
2023-04-27T04:01:49.524Z,531.00
2023-04-27T04:02:49.829Z,533.00
2023-04-27T04:03:49.757Z,531.00
2023-04-27T04:04:49.708Z,529.00
2023-04-27T04:05:50.065Z,527.00
2023-04-27T04:06:49.643Z,528.00
2023-04-27T04:07:49.636Z,532.00
2023-04-27T04:08:49.647Z,536.00
2023-04-27T04:09:49.661Z,535.00
2023-04-27T04:10:49.677Z,535.00
2023-04-27T04:11:49.734Z,526.00
2023-04-27T04:12:49.683Z,529.00
2023-04-27T04:13:49.704Z,533.00
2023-04-27T04:14:49.758Z,528.00
2023-04-27T04:15:49.792Z,532.00
2023-04-27T04:16:49.741Z,527.00
2023-04-27T04:17:49.818Z,521.00
2023-04-27T04:18:49.776Z,532.00
2023-04-27T04:19:49.779Z,529.00
2023-04-27T04:20:49.827Z,529.00
2023-04-27T04:21:49.811Z,530.00
2023-04-27T04:22:49.817Z,530.00
2023-04-27T04:23:49.875Z,530.00
2023-04-27T04:24:49.869Z,531.00
2023-04-27T04:25:49.871Z,533.00
2023-04-27T04:26:49.884Z,530.00
2023-04-27T04:27:49.920Z,534.00
2023-04-27T04:28:49.936Z,533.00
2023-04-27T04:29:49.927Z,533.00
2023-04-27T04:30:49.981Z,531.00
2023-04-27T04:31:50.111Z,529.00
2023-04-27T04:32:50.026Z,532.00
2023-04-27T04:33:50.022Z,530.00
2023-04-27T04:34:50.109Z,535.00
2023-04-27T04:35:50.080Z,533.00
2023-04-27T04:36:50.113Z,531.00
2023-04-27T04:37:50.101Z,530.00
2023-04-27T04:38:50.084Z,537.00
2023-04-27T04:39:50.110Z,536.00
2023-04-27T04:40:50.146Z,532.00
2023-04-27T04:41:50.146Z,534.00
2023-04-27T04:42:50.167Z,540.00
2023-04-27T04:43:50.156Z,537.00
2023-04-27T04:44:50.203Z,535.00
2023-04-27T04:45:50.217Z,540.00
2023-04-27T04:46:50.286Z,540.00
2023-04-27T04:47:50.271Z,543.00
2023-04-27T04:48:51.645Z,537.00
2023-04-27T04:49:50.261Z,541.00
2023-04-27T04:50:50.284Z,544.00
2023-04-27T04:51:50.325Z,536.00
2023-04-27T04:52:50.323Z,536.00
2023-04-27T04:53:50.328Z,543.00
2023-04-27T04:54:50.357Z,544.00
2023-04-27T04:55:50.554Z,545.00
2023-04-27T04:56:50.380Z,539.00
2023-04-27T04:57:50.426Z,540.00
2023-04-27T04:58:50.419Z,546.00
2023-04-27T04:59:50.433Z,543.00
2023-04-27T05:00:50.594Z,542.00
2023-04-27T05:01:50.471Z,542.00
2023-04-27T05:02:50.558Z,541.00
2023-04-27T05:03:50.600Z,570.00
2023-04-27T05:04:50.492Z,578.00
2023-04-27T05:05:50.563Z,593.00
2023-04-27T05:06:50.499Z,581.00
2023-04-27T05:07:50.489Z,577.00
2023-04-27T05:08:50.522Z,564.00
2023-04-27T05:09:50.555Z,542.00
2023-04-27T05:10:50.561Z,527.00
2023-04-27T05:11:50.569Z,517.00
2023-04-27T05:12:50.599Z,517.00
2023-04-27T05:13:50.629Z,509.00
2023-04-27T05:14:50.681Z,500.00
2023-04-27T05:15:50.743Z,501.00
2023-04-27T05:16:50.694Z,503.00
2023-04-27T05:17:50.734Z,507.00
2023-04-27T05:18:50.771Z,500.00
2023-04-27T05:19:50.753Z,502.00
2023-04-27T05:20:50.798Z,507.00
2023-04-27T05:21:50.813Z,501.00
2023-04-27T05:22:50.862Z,508.00
2023-04-27T05:23:50.854Z,508.00
2023-04-27T05:24:50.865Z,508.00
2023-04-27T05:25:50.953Z,508.00
2023-04-27T05:26:50.971Z,509.00
2023-04-27T05:27:50.976Z,506.00
2023-04-27T05:28:51.022Z,512.00
2023-04-27T05:29:51.053Z,514.00
2023-04-27T05:30:51.116Z,518.00
2023-04-27T05:31:51.153Z,523.00
2023-04-27T05:32:51.167Z,536.00
2023-04-27T05:33:51.164Z,540.00
2023-04-27T05:34:51.212Z,541.00
2023-04-27T05:35:51.587Z,550.00
2023-04-27T05:36:51.292Z,549.00
2023-04-27T05:37:51.321Z,557.00
2023-04-27T05:38:51.352Z,568.00
2023-04-27T05:39:51.384Z,572.00
2023-04-27T05:40:51.406Z,574.00
2023-04-27T05:41:51.446Z,590.00
2023-04-27T05:42:51.461Z,591.00
2023-04-27T05:43:51.575Z,582.00
2023-04-27T05:44:51.549Z,576.00
2023-04-27T05:45:51.557Z,577.00
2023-04-27T05:46:51.612Z,566.00
2023-04-27T05:47:51.642Z,566.00
2023-04-27T05:48:51.687Z,566.00
2023-04-27T05:49:51.677Z,565.00
2023-04-27T05:50:52.097Z,559.00
2023-04-27T05:51:51.771Z,578.00
2023-04-27T05:52:51.814Z,556.00
2023-04-27T05:53:51.883Z,579.00
2023-04-27T05:54:51.881Z,603.00
2023-04-27T05:55:51.918Z,626.00
2023-04-27T05:56:52.007Z,647.00
2023-04-27T05:58:04.600Z,654.00
2023-04-27T05:58:53.013Z,655.00
2023-04-27T05:59:51.985Z,658.00
2023-04-27T06:00:51.984Z,682.00
2023-04-27T06:01:52.067Z,746.00
2023-04-27T06:02:52.196Z,852.00
2023-04-27T06:03:52.101Z,845.00
2023-04-27T06:04:52.022Z,812.00
2023-04-27T06:05:51.941Z,806.00
2023-04-27T06:06:51.952Z,883.00
2023-04-27T06:07:51.940Z,921.00
2023-04-27T06:08:51.940Z,993.00
2023-04-27T06:09:51.927Z,1069.00
2023-04-27T06:10:51.910Z,1117.00
2023-04-27T06:11:51.902Z,1166.00
2023-04-27T06:12:51.911Z,1211.00
2023-04-27T06:13:51.922Z,1250.00
2023-04-27T06:14:51.876Z,1295.00
2023-04-27T06:15:51.933Z,1328.00
2023-04-27T06:16:51.931Z,1354.00
2023-04-27T06:17:52.016Z,1397.00
2023-04-27T06:18:52.035Z,1426.00
2023-04-27T06:19:52.023Z,1467.00
2023-04-27T06:20:52.118Z,1495.00
2023-04-27T06:21:52.132Z,1526.00
2023-04-27T06:22:52.163Z,1554.00
2023-04-27T06:23:52.158Z,1567.00
2023-04-27T06:24:53.159Z,1570.00
2023-04-27T06:25:52.155Z,1578.00
2023-04-27T06:26:52.175Z,1601.00
2023-04-27T06:27:52.169Z,1650.00
2023-04-27T06:28:52.094Z,1702.00
2023-04-27T06:29:52.123Z,1724.00
2023-04-27T06:30:52.104Z,1760.00
2023-04-27T06:31:52.180Z,1767.00
2023-04-27T06:32:52.189Z,1788.00
2023-04-27T06:33:52.090Z,1818.00
2023-04-27T06:34:52.061Z,1823.00
2023-04-27T06:35:52.102Z,1859.00
2023-04-27T06:36:52.092Z,1875.00
2023-04-27T06:37:52.036Z,1884.00
2023-04-27T06:38:52.081Z,1908.00
2023-04-27T06:39:52.040Z,1907.00
2023-04-27T06:40:52.623Z,1943.00
2023-04-27T06:41:52.038Z,1963.00
2023-04-27T06:42:52.025Z,1971.00
2023-04-27T06:43:52.015Z,1994.00
2023-04-27T06:44:52.026Z,1995.00
2023-04-27T06:45:52.067Z,1994.00
2023-04-27T06:46:51.994Z,2034.00
2023-04-27T06:47:51.989Z,2051.00
2023-04-27T06:48:51.997Z,2159.00
2023-04-27T06:49:52.025Z,2235.00
2023-04-27T06:50:52.210Z,2219.00
2023-04-27T06:51:52.053Z,2199.00
2023-04-27T06:52:52.098Z,2139.00
2023-04-27T06:53:52.061Z,1875.00
2023-04-27T06:54:52.094Z,1889.00
2023-04-27T06:55:52.110Z,2056.00
2023-04-27T06:56:52.141Z,2068.00
2023-04-27T06:57:52.164Z,2064.00
2023-04-27T06:58:52.191Z,2035.00
2023-04-27T06:59:52.232Z,2027.00
2023-04-27T07:00:52.239Z,2049.00
2023-04-27T07:01:52.351Z,2052.00
2023-04-27T07:02:52.313Z,2058.00
2023-04-27T07:03:52.460Z,2085.00
2023-04-27T07:04:52.496Z,2104.00
2023-04-27T07:05:52.313Z,2124.00
2023-04-27T07:06:52.384Z,2166.00
2023-04-27T07:07:52.361Z,2181.00
2023-04-27T07:08:52.364Z,2204.00
2023-04-27T07:09:52.554Z,2204.00
2023-04-27T07:10:52.410Z,2223.00
2023-04-27T07:11:52.445Z,2231.00
2023-04-27T07:12:52.495Z,2248.00
2023-04-27T07:13:52.502Z,2257.00
2023-04-27T07:14:52.532Z,2270.00
2023-04-27T07:15:52.603Z,2260.00
2023-04-27T07:16:52.663Z,2258.00
2023-04-27T07:17:52.652Z,2288.00
2023-04-27T07:18:52.701Z,2277.00
2023-04-27T07:19:52.755Z,2305.00
2023-04-27T07:20:52.837Z,2308.00
2023-04-27T07:21:52.868Z,2325.00
2023-04-27T07:22:52.901Z,2335.00
2023-04-27T07:23:54.181Z,2329.00
2023-04-27T07:24:53.012Z,2329.00
2023-04-27T07:25:53.068Z,2312.00
2023-04-27T07:26:53.147Z,2325.00
2023-04-27T07:27:53.137Z,2318.00
2023-04-27T07:28:53.203Z,2321.00
2023-04-27T07:29:53.290Z,2301.00
2023-04-27T07:30:53.316Z,2289.00
2023-04-27T07:31:53.417Z,2304.00
2023-04-27T07:32:53.541Z,2341.00
2023-04-27T07:33:53.460Z,2089.00
2023-04-27T07:34:54.497Z,1749.00
2023-04-27T07:35:53.481Z,1537.00
2023-04-27T07:36:53.510Z,1187.00
2023-04-27T07:37:53.526Z,941.00
2023-04-27T07:38:53.533Z,819.00
2023-04-27T07:39:53.583Z,840.00
2023-04-27T07:40:53.591Z,1004.00
2023-04-27T07:41:53.653Z,1143.00
2023-04-27T07:42:53.665Z,1258.00
2023-04-27T07:43:53.711Z,1311.00
2023-04-27T07:44:53.734Z,1306.00
2023-04-27T07:45:54.150Z,1226.00
2023-04-27T07:46:53.756Z,1068.00
2023-04-27T07:47:53.793Z,706.00
2023-04-27T07:48:53.808Z,710.00
2023-04-27T07:49:53.869Z,856.00
2023-04-27T07:50:53.855Z,922.00
2023-04-27T07:51:53.889Z,924.00
2023-04-27T07:52:53.998Z,851.00
2023-04-27T07:53:53.960Z,682.00
2023-04-27T07:54:54.013Z,761.00
2023-04-27T07:55:54.282Z,841.00
2023-04-27T07:56:54.114Z,940.00
2023-04-27T07:57:54.186Z,1041.00
2023-04-27T07:58:54.194Z,1125.00
2023-04-27T07:59:54.208Z,1168.00
2023-04-27T08:00:54.216Z,1236.00
2023-04-27T08:01:57.259Z,1294.00
2023-04-27T08:02:55.456Z,1297.00
2023-04-27T08:03:54.469Z,1312.00
2023-04-27T08:04:54.628Z,1349.00
2023-04-27T08:05:54.389Z,1420.00
2023-04-27T08:06:54.870Z,1506.00
2023-04-27T08:07:54.728Z,1563.00
2023-04-27T08:08:54.229Z,1593.00
2023-04-27T08:09:54.175Z,1631.00
2023-04-27T08:10:55.180Z,1633.00
2023-04-27T08:11:54.176Z,1643.00
2023-04-27T08:12:54.167Z,1664.00
2023-04-27T08:13:54.183Z,1715.00
2023-04-27T08:14:54.156Z,1774.00
2023-04-27T08:15:54.146Z,1810.00
2023-04-27T08:16:54.175Z,1835.00
2023-04-27T08:17:54.177Z,1857.00
2023-04-27T08:18:54.130Z,1883.00
2023-04-27T08:19:54.147Z,1913.00
2023-04-27T08:20:54.232Z,1925.00
2023-04-27T08:21:54.252Z,1944.00
2023-04-27T08:22:54.333Z,1961.00
2023-04-27T08:23:54.378Z,1986.00
2023-04-27T08:24:54.374Z,1991.00
2023-04-27T08:25:54.438Z,2012.00
2023-04-27T08:26:54.467Z,2035.00
2023-04-27T08:27:54.491Z,2051.00
2023-04-27T08:28:54.554Z,2068.00
2023-04-27T08:29:54.543Z,2083.00
2023-04-27T08:30:54.670Z,2121.00
2023-04-27T08:31:56.738Z,2102.00
2023-04-27T08:32:54.796Z,2112.00
2023-04-27T08:33:54.674Z,2137.00
2023-04-27T08:35:01.787Z,2167.00
2023-04-27T08:35:54.743Z,2169.00
2023-04-27T08:36:54.711Z,2175.00
2023-04-27T08:37:54.745Z,2183.00
2023-04-27T08:38:54.718Z,2214.00
2023-04-27T08:39:54.690Z,2250.00
2023-04-27T08:40:54.674Z,2227.00
2023-04-27T08:41:54.681Z,2247.00
2023-04-27T08:42:54.673Z,2264.00
2023-04-27T08:43:54.661Z,2253.00
2023-04-27T08:44:54.656Z,2198.00
2023-04-27T08:45:54.661Z,2137.00
2023-04-27T08:46:54.720Z,1895.00
2023-04-27T08:47:54.745Z,1720.00
2023-04-27T08:48:54.628Z,1280.00
2023-04-27T08:49:54.601Z,1252.00
2023-04-27T08:50:54.629Z,1275.00
2023-04-27T08:51:54.630Z,1440.00
2023-04-27T08:52:54.582Z,1578.00
2023-04-27T08:53:54.599Z,1651.00
2023-04-27T08:54:54.589Z,1705.00
2023-04-27T08:55:54.587Z,1726.00
2023-04-27T08:56:54.581Z,1695.00
2023-04-27T08:57:54.539Z,1670.00
2023-04-27T08:58:54.575Z,1563.00
2023-04-27T08:59:54.519Z,1570.00
2023-04-27T09:00:54.547Z,1671.00
2023-04-27T09:01:54.552Z,1719.00
2023-04-27T09:02:54.635Z,1768.00
2023-04-27T09:03:54.606Z,1821.00
2023-04-27T09:04:54.666Z,1853.00
2023-04-27T09:06:04.538Z,1893.00
2023-04-27T09:06:55.504Z,1895.00
2023-04-27T09:07:54.514Z,1903.00
2023-04-27T09:08:54.490Z,1922.00
2023-04-27T09:09:54.481Z,1965.00
2023-04-27T09:10:54.477Z,2024.00
2023-04-27T09:11:54.485Z,2039.00
2023-04-27T09:12:54.438Z,2044.00
2023-04-27T09:13:54.463Z,2062.00
2023-04-27T09:14:54.449Z,2077.00
2023-04-27T09:15:54.458Z,2074.00
2023-04-27T09:16:54.433Z,2086.00
2023-04-27T09:17:54.479Z,2098.00
2023-04-27T09:18:54.438Z,2101.00
2023-04-27T09:19:54.497Z,2119.00
2023-04-27T09:20:54.502Z,2135.00
2023-04-27T09:21:54.539Z,2151.00
2023-04-27T09:22:54.529Z,2157.00
2023-04-27T09:23:54.592Z,2175.00
2023-04-27T09:24:54.571Z,2196.00
2023-04-27T09:25:54.614Z,2214.00
2023-04-27T09:26:54.615Z,2219.00
2023-04-27T09:27:54.656Z,2235.00
2023-04-27T09:28:54.665Z,2227.00
2023-04-27T09:29:54.664Z,2245.00
2023-04-27T09:30:54.723Z,2265.00
2023-04-27T09:31:54.782Z,2272.00
2023-04-27T09:32:54.749Z,2290.00
2023-04-27T09:33:54.708Z,2293.00
2023-04-27T09:34:54.710Z,2302.00
2023-04-27T09:35:54.754Z,2313.00
2023-04-27T09:36:54.730Z,2323.00
2023-04-27T09:37:54.769Z,2341.00
2023-04-27T09:38:54.770Z,2352.00
2023-04-27T09:39:54.778Z,2362.00
2023-04-27T09:40:54.800Z,2370.00
2023-04-27T09:41:54.802Z,2383.00
2023-04-27T09:42:54.802Z,2390.00
2023-04-27T09:43:57.049Z,2408.00
2023-04-27T09:44:54.819Z,2429.00
2023-04-27T09:45:54.825Z,2468.00
2023-04-27T09:46:55.184Z,2498.00
2023-04-27T09:47:54.830Z,2517.00
2023-04-27T09:48:54.739Z,2521.00
2023-04-27T09:49:54.756Z,2449.00
2023-04-27T09:50:54.751Z,2489.00
2023-04-27T09:51:54.774Z,2497.00
2023-04-27T09:52:54.754Z,2494.00
2023-04-27T09:53:54.728Z,2494.00
2023-04-27T09:54:54.761Z,2467.00
2023-04-27T09:55:54.749Z,2412.00
2023-04-27T09:56:54.711Z,2375.00
2023-04-27T09:57:54.695Z,2345.00
2023-04-27T09:58:54.684Z,2332.00
2023-04-27T09:59:54.685Z,2314.00
2023-04-27T10:00:54.780Z,2306.00
2023-04-27T10:01:54.695Z,2286.00
2023-04-27T10:02:54.749Z,2264.00
2023-04-27T10:03:54.824Z,2266.00
2023-04-27T10:04:54.738Z,2256.00
2023-04-27T10:05:54.665Z,2221.00
2023-04-27T10:06:55.501Z,2207.00
2023-04-27T10:07:54.716Z,2208.00
2023-04-27T10:08:54.723Z,2203.00
2023-04-27T10:09:54.720Z,2174.00
2023-04-27T10:10:54.730Z,2163.00
2023-04-27T10:11:54.816Z,2132.00
2023-04-27T10:12:54.831Z,2113.00
2023-04-27T10:13:55.255Z,2096.00
2023-04-27T10:14:54.921Z,2104.00
2023-04-27T10:15:54.934Z,2088.00
2023-04-27T10:16:55.026Z,2091.00
2023-04-27T10:17:55.066Z,2060.00
2023-04-27T10:18:55.097Z,2038.00
2023-04-27T10:19:57.344Z,2037.00
2023-04-27T10:20:55.112Z,2043.00
2023-04-27T10:21:55.187Z,2051.00
2023-04-27T10:22:55.071Z,2036.00
2023-04-27T10:23:55.082Z,2038.00
2023-04-27T10:24:55.104Z,2015.00
2023-04-27T10:25:55.068Z,1994.00
2023-04-27T10:26:55.108Z,1995.00
2023-04-27T10:27:55.078Z,1968.00
2023-04-27T10:28:55.066Z,1967.00
2023-04-27T10:29:55.035Z,1948.00
2023-04-27T10:30:55.061Z,1954.00
2023-04-27T10:31:55.002Z,1963.00
2023-04-27T10:32:55.036Z,1947.00
2023-04-27T10:33:55.018Z,1936.00
2023-04-27T10:34:54.995Z,1909.00
2023-04-27T10:35:54.988Z,1911.00
2023-04-27T10:36:55.009Z,1898.00
2023-04-27T10:37:54.994Z,1890.00
2023-04-27T10:38:54.951Z,1887.00
2023-04-27T10:39:55.092Z,1885.00
2023-04-27T10:40:54.989Z,1866.00
2023-04-27T10:41:55.232Z,1854.00
2023-04-27T10:42:54.957Z,1842.00
2023-04-27T10:43:55.079Z,1823.00
2023-04-27T10:44:54.957Z,1814.00
2023-04-27T10:45:54.957Z,1813.00
2023-04-27T10:46:54.971Z,1797.00
2023-04-27T10:47:54.959Z,1798.00
2023-04-27T10:48:54.926Z,1792.00
2023-04-27T10:49:54.898Z,1785.00
2023-04-27T10:50:54.981Z,1795.00
2023-04-27T10:51:54.875Z,1793.00
2023-04-27T10:52:54.882Z,1782.00
2023-04-27T10:53:54.907Z,1771.00
2023-04-27T10:54:54.858Z,1775.00
2023-04-27T10:55:54.847Z,1760.00
2023-04-27T10:56:55.191Z,1750.00
2023-04-27T10:57:55.194Z,1748.00
2023-04-27T10:58:54.870Z,1738.00
2023-04-27T10:59:54.829Z,1729.00
2023-04-27T11:00:54.836Z,1728.00
2023-04-27T11:01:54.873Z,1716.00
2023-04-27T11:02:54.902Z,1716.00
2023-04-27T11:03:55.031Z,1701.00
2023-04-27T11:04:54.973Z,1699.00
2023-04-27T11:05:56.501Z,1682.00
2023-04-27T11:06:55.691Z,1678.00
2023-04-27T11:07:55.268Z,1658.00
2023-04-27T11:08:55.352Z,1648.00
2023-04-27T11:09:55.397Z,1637.00
2023-04-27T11:10:55.418Z,1642.00
2023-04-27T11:11:55.534Z,1637.00
2023-04-27T11:12:55.573Z,1629.00
2023-04-27T11:13:55.645Z,1620.00
2023-04-27T11:14:55.624Z,1614.00
2023-04-27T11:15:55.724Z,1606.00
2023-04-27T11:16:55.771Z,1591.00
2023-04-27T11:17:55.867Z,1586.00
2023-04-27T11:18:56.624Z,1572.00
2023-04-27T11:19:55.924Z,1576.00
2023-04-27T11:20:55.954Z,1571.00
2023-04-27T11:21:56.208Z,1560.00
2023-04-27T11:22:56.055Z,1561.00
2023-04-27T11:23:56.133Z,1553.00
2023-04-27T11:24:56.207Z,1557.00
2023-04-27T11:25:56.212Z,1546.00
2023-04-27T11:26:56.286Z,1524.00
2023-04-27T11:27:56.374Z,1526.00
2023-04-27T11:28:56.355Z,1519.00
2023-04-27T11:29:56.402Z,1503.00
2023-04-27T11:30:56.441Z,1503.00
2023-04-27T11:31:56.602Z,1503.00
2023-04-27T11:32:56.564Z,1499.00
2023-04-27T11:33:56.560Z,1493.00
2023-04-27T11:34:58.426Z,1481.00
2023-04-27T11:35:56.765Z,1481.00
2023-04-27T11:37:03.674Z,1486.00
2023-04-27T11:37:57.578Z,1488.00
2023-04-27T11:38:56.652Z,1471.00
2023-04-27T11:39:56.597Z,1434.00
2023-04-27T11:40:56.549Z,1431.00
2023-04-27T11:41:56.532Z,1423.00
2023-04-27T11:42:56.577Z,1475.00
2023-04-27T11:43:56.519Z,1500.00
2023-04-27T11:44:56.586Z,1498.00
2023-04-27T11:45:56.522Z,1481.00
2023-04-27T11:46:56.574Z,1454.00
2023-04-27T11:47:56.546Z,1421.00
2023-04-27T11:48:56.526Z,1428.00
2023-04-27T11:49:56.576Z,1413.00
2023-04-27T11:50:56.589Z,1403.00
2023-04-27T11:51:56.729Z,1395.00
2023-04-27T11:52:56.648Z,1384.00
2023-04-27T11:53:56.722Z,1373.00
2023-04-27T11:54:56.779Z,1367.00
2023-04-27T11:55:56.750Z,1361.00
2023-04-27T11:56:56.791Z,1366.00
2023-04-27T11:57:56.833Z,1365.00
2023-04-27T11:58:56.850Z,1359.00
2023-04-27T11:59:56.914Z,1349.00
2023-04-27T12:00:56.919Z,1343.00
2023-04-27T12:01:57.026Z,1336.00
2023-04-27T12:02:57.134Z,1349.00
2023-04-27T12:03:58.089Z,1334.00
2023-04-27T12:04:57.145Z,1324.00
2023-04-27T12:06:04.038Z,1325.00
2023-04-27T12:06:57.948Z,1327.00
2023-04-27T12:07:56.940Z,1327.00
2023-04-27T12:08:56.926Z,1319.00
2023-04-27T12:09:58.427Z,1306.00
2023-04-27T12:10:56.950Z,1327.00
2023-04-27T12:11:56.921Z,1306.00
2023-04-27T12:12:56.925Z,1298.00
2023-04-27T12:13:56.952Z,1280.00
2023-04-27T12:14:56.886Z,1278.00
2023-04-27T12:15:58.515Z,1268.00
2023-04-27T12:16:56.953Z,1269.00
2023-04-27T12:17:56.928Z,1270.00